North Fork, Idaho
Current Conditions -  °F | °C
As of 4:15 PM on Friday 26 Dec 2014 (Local Time) from KSMN Reporting Station
Overcast Overcast  
Wind Chill: -3°   Ceiling: 4800
Heat Index: -3°   Visibility: 10mi
Dew Point: -8°   Wind: 0mph
Humidity: 69%   Direction: NA
Pressure: 30.14"   Gusts: NA
Location:  45.41°N, 114°W
Report Text: KSMN 262315Z AUTO 00000KT 10SM SCT039 BKN048 OVC080 M03/M08 A3014 RMK AO1
Loading
Personal Weather Stations






























Interactive Weather Map New forecast layout! Learn more

10-Day Weather Forecast

Advertisements
Track Severe Weather on mobile